Lincoln, North Dakota
Current Conditions -  °F | °C
As of 5:52 AM on Saturday 25 Oct 2014 (Local Time) from KBIS Reporting Station
Scattered Clouds Scattered Clouds  
Wind Chill: 42°   Ceiling: Unl
Heat Index: 45°   Visibility: 10mi
Dew Point: 33°   Wind: 6mph
Humidity: 63%   Direction: 280°W
Pressure: 30.11"   Gusts: NA
Location:  46.7287°N, 100.616°W
Report Text: KBIS 251052Z 28005KT 10SM SCT120 07/01 A3011 RMK AO2 SLP202 T00720006
Loading
Personal Weather Stations






























Interactive Weather Map
Tropical Storm Tracking
New forecast layout! Learn more

10-Day Weather Forecast

Advertisements
Track Severe Weather on mobile